Time;durP1;ratioP1;P1;durP2;ratioP2;P2;SDS_P1;SDS_P2;PMS_P1;PMS_P2;Temp;Humidity;BMP_temperature;BMP_pressure;BME280_temperature;BME280_humidity;BME280_pressure;Samples;Min_cycle;Max_cycle;Signal;HPM_P1;HPM_P2
2021/09/07 00:01:33;;;;;;;3.30;2.50;;;18.50;74.80;;;;;;10457713;28;20192;-62
2021/09/07 00:06:56;;;;;;;3.77;2.73;;;18.50;74.80;;;;;;10457761;28;20225;-62
2021/09/07 00:12:19;;;;;;;3.00;2.70;;;18.50;74.80;;;;;;10457595;28;20193;-63
2021/09/07 00:17:41;;;;;;;3.10;2.77;;;18.50;74.80;;;;;;10458779;28;20219;-63
2021/09/07 00:23:04;;;;;;;3.73;2.70;;;18.50;74.80;;;;;;10456356;28;20208;-63
2021/09/07 00:28:26;;;;;;;4.10;3.10;;;18.50;74.80;;;;;;10464315;28;20712;-62
2021/09/07 00:33:49;;;;;;;3.73;2.97;;;18.50;74.80;;;;;;10456429;28;20189;-62
2021/09/07 00:39:13;;;;;;;3.10;2.73;;;18.50;74.80;;;;;;10455405;28;20217;-62
2021/09/07 00:44:35;;;;;;;3.50;3.17;;;18.50;74.80;;;;;;10456580;28;20213;-62
2021/09/07 00:49:58;;;;;;;3.23;2.70;;;18.50;74.80;;;;;;10454404;28;20225;-62
2021/09/07 00:55:24;;;;;;;2.90;2.53;;;18.50;74.80;;;;;;10458704;28;20193;-62
2021/09/07 01:00:46;;;;;;;3.70;3.10;;;18.50;74.80;;;;;;10455865;28;20224;-61
2021/09/07 01:06:08;;;;;;;3.50;2.70;;;18.50;74.80;;;;;;10455733;28;20229;-63
2021/09/07 01:11:32;;;;;;;3.50;2.80;;;18.50;74.80;;;;;;10455902;28;20197;-63
2021/09/07 01:16:54;;;;;;;3.00;2.60;;;18.50;74.80;;;;;;10454858;28;20217;-63
2021/09/07 01:22:18;;;;;;;3.20;2.90;;;18.50;74.80;;;;;;10455307;28;20201;-65
2021/09/07 01:27:41;;;;;;;3.03;2.70;;;18.50;74.80;;;;;;10461668;28;20230;-62
2021/09/07 01:33:03;;;;;;;3.10;2.80;;;18.50;74.90;;;;;;10496903;28;20575;-63
2021/09/07 01:38:25;;;;;;;3.03;2.73;;;18.50;74.90;;;;;;10495224;28;20216;-61
2021/09/07 01:43:50;;;;;;;3.17;2.70;;;18.50;74.90;;;;;;10496022;28;20681;-64
2021/09/07 01:49:14;;;;;;;2.70;2.50;;;18.50;75.00;;;;;;10483510;28;20308;-62
2021/09/07 01:54:40;;;;;;;3.07;2.80;;;18.50;74.90;;;;;;10453684;28;20200;-62
2021/09/07 02:00:05;;;;;;;3.17;2.63;;;18.50;75.00;;;;;;10451166;28;20749;-63
2021/09/07 02:05:27;;;;;;;3.43;2.70;;;18.50;75.00;;;;;;10453751;28;20700;-63
2021/09/07 02:10:49;;;;;;;3.40;2.70;;;18.50;75.00;;;;;;10452595;28;20216;-63
2021/09/07 02:16:13;;;;;;;3.70;3.20;;;18.50;75.00;;;;;;10452231;28;20685;-65
2021/09/07 02:21:35;;;;;;;4.30;3.23;;;18.50;75.10;;;;;;10451812;28;20208;-63
2021/09/07 02:26:57;;;;;;;3.90;3.13;;;18.50;75.10;;;;;;10451659;28;20699;-62
2021/09/07 02:32:20;;;;;;;3.73;2.97;;;18.50;75.10;;;;;;10451793;28;20197;-63
2021/09/07 02:37:42;;;;;;;4.50;3.43;;;18.50;75.10;;;;;;10451669;28;20224;-63
2021/09/07 02:43:04;;;;;;;6.80;3.60;;;18.50;75.10;;;;;;10451263;28;20200;-63
2021/09/07 02:48:28;;;;;;;3.70;3.20;;;18.50;75.20;;;;;;10451780;28;20224;-61
2021/09/07 02:53:50;;;;;;;4.23;3.23;;;18.50;75.20;;;;;;10450392;28;20201;-63
2021/09/07 02:59:12;;;;;;;4.53;3.70;;;18.50;75.20;;;;;;10451167;28;20701;-63
2021/09/07 03:04:35;;;;;;;3.20;2.90;;;18.50;75.20;;;;;;10450268;28;20224;-62
2021/09/07 03:09:57;;;;;;;4.33;3.37;;;18.50;75.20;;;;;;10454646;28;20220;-63
2021/09/07 03:15:19;;;;;;;5.47;3.60;;;18.50;75.20;;;;;;10459777;28;20197;-62
2021/09/07 03:20:43;;;;;;;4.10;3.30;;;18.50;75.30;;;;;;10458542;28;20219;-63
2021/09/07 03:26:06;;;;;;;4.67;3.50;;;18.50;75.30;;;;;;10459508;28;20247;-64
2021/09/07 03:31:28;;;;;;;4.77;3.57;;;18.50;75.30;;;;;;10498532;28;20192;-61
2021/09/07 03:36:51;;;;;;;4.07;3.60;;;18.50;75.30;;;;;;10458393;28;20217;-62
2021/09/07 03:42:13;;;;;;;3.67;2.90;;;18.40;75.30;;;;;;10458426;28;20201;-63
2021/09/07 03:47:35;;;;;;;3.60;3.10;;;18.50;75.40;;;;;;10455876;28;20221;-64
2021/09/07 03:52:59;;;;;;;3.00;2.43;;;18.50;75.30;;;;;;10449974;28;20669;-62
2021/09/07 03:58:21;;;;;;;3.10;2.63;;;18.40;75.30;;;;;;10458404;28;20220;-62
2021/09/07 04:03:43;;;;;;;3.80;2.90;;;18.50;75.90;;;;;;10458153;28;20201;-62
2021/09/07 04:09:07;;;;;;;3.00;2.50;;;18.40;75.30;;;;;;10457583;28;20217;-63
2021/09/07 04:14:29;;;;;;;3.10;2.60;;;18.50;75.30;;;;;;10457760;28;20212;-63
2021/09/07 04:19:51;;;;;;;5.00;2.80;;;18.50;75.30;;;;;;10457111;28;20220;-65
2021/09/07 04:25:14;;;;;;;2.90;2.60;;;18.50;75.30;;;;;;10457129;28;20205;-62
2021/09/07 04:30:36;;;;;;;3.10;2.70;;;18.50;75.30;;;;;;10489173;28;20213;-62
2021/09/07 04:35:58;;;;;;;3.00;2.53;;;18.40;75.20;;;;;;10471664;28;20193;-63
2021/09/07 04:41:22;;;;;;;2.70;2.43;;;18.40;75.20;;;;;;10415311;28;20201;-63
2021/09/07 04:46:44;;;;;;;3.00;2.70;;;18.50;75.30;;;;;;10414474;28;20233;-62
2021/09/07 04:52:07;;;;;;;2.90;2.50;;;18.40;75.20;;;;;;10422696;28;20197;-59
2021/09/07 04:57:30;;;;;;;2.90;2.60;;;18.50;75.20;;;;;;10456039;28;20209;-59
2021/09/07 05:02:52;;;;;;;3.47;2.80;;;18.50;75.20;;;;;;10452235;28;20204;-63
2021/09/07 05:08:14;;;;;;;3.10;2.80;;;18.50;75.10;;;;;;10455504;28;20227;-63
2021/09/07 05:13:38;;;;;;;2.93;2.50;;;18.50;75.10;;;;;;10455027;28;20197;-63
2021/09/07 05:19:00;;;;;;;3.13;2.83;;;18.50;75.10;;;;;;10452485;28;20212;-62
2021/09/07 05:24:22;;;;;;;2.93;2.60;;;18.50;75.00;;;;;;10455722;28;20197;-62
2021/09/07 05:29:45;;;;;;;3.30;2.90;;;18.50;75.10;;;;;;10479155;28;20292;-62
2021/09/07 05:35:08;;;;;;;4.43;2.80;;;18.50;75.10;;;;;;10495902;28;20192;-65
2021/09/07 05:40:30;;;;;;;3.73;3.40;;;18.40;75.20;;;;;;10495169;28;20223;-63
2021/09/07 05:45:54;;;;;;;6.80;4.67;;;18.40;75.10;;;;;;10411745;28;20209;-63
2021/09/07 05:51:16;;;;;;;6.30;4.03;;;18.40;74.80;;;;;;10507640;22;20224;-65
2021/09/07 05:56:38;;;;;;;4.67;3.77;;;18.40;74.90;;;;;;10479274;28;20201;-65
2021/09/07 06:02:01;;;;;;;7.27;5.30;;;18.40;74.80;;;;;;10448873;28;20197;-65
2021/09/07 06:07:23;;;;;;;5.70;5.03;;;18.40;74.40;;;;;;10452158;28;20221;-64
2021/09/07 06:12:45;;;;;;;5.03;3.90;;;18.40;74.20;;;;;;10453864;28;20201;-65
2021/09/07 06:18:09;;;;;;;5.67;4.00;;;18.40;74.00;;;;;;10453429;28;20216;-64
2021/09/07 06:23:31;;;;;;;5.23;3.93;;;18.40;73.90;;;;;;10490986;28;20192;-65
2021/09/07 06:28:54;;;;;;;5.83;3.87;;;18.40;74.00;;;;;;10472697;28;20217;-65
2021/09/07 06:34:23;;;;;;;4.03;3.30;;;18.40;73.90;;;;;;10449292;28;20197;-65
2021/09/07 06:39:45;;;;;;;4.67;4.03;;;18.30;73.70;;;;;;10451091;28;20227;-65
2021/09/07 06:45:09;;;;;;;6.37;4.00;;;18.40;73.80;;;;;;10450123;28;20224;-65
2021/09/07 06:50:32;;;;;;;7.07;4.20;;;18.30;73.90;;;;;;10448675;28;20231;-65
2021/09/07 06:55:54;;;;;;;6.60;4.03;;;18.40;74.00;;;;;;10450474;28;20212;-66
2021/09/07 07:01:16;;;;;;;5.70;4.47;;;18.30;74.30;;;;;;10451032;28;20221;-66
2021/09/07 07:06:40;;;;;;;6.43;4.20;;;18.30;74.40;;;;;;10448874;28;20223;-65
2021/09/07 07:12:02;;;;;;;4.83;4.07;;;18.40;74.70;;;;;;10449990;28;20201;-66
2021/09/07 07:17:24;;;;;;;7.33;5.30;;;18.30;74.90;;;;;;10451915;28;20228;-65
2021/09/07 07:22:47;;;;;;;6.87;5.57;;;18.40;74.90;;;;;;10430261;28;20205;-65
2021/09/07 07:28:10;;;;;;;9.23;5.30;;;18.40;75.00;;;;;;10411987;28;20575;-60
2021/09/07 07:33:32;;;;;;;6.97;5.30;;;18.40;75.00;;;;;;10447825;28;20673;-61
2021/09/07 07:38:55;;;;;;;9.83;6.77;;;18.40;75.10;;;;;;10451012;28;20209;-60
2021/09/07 07:44:17;;;;;;;9.10;6.27;;;18.40;75.20;;;;;;10450282;28;20193;-60
2021/09/07 07:49:39;;;;;;;8.33;6.07;;;18.40;75.30;;;;;;10450880;28;20217;-61
2021/09/07 07:55:03;;;;;;;7.73;5.87;;;18.40;75.60;;;;;;10449943;28;20264;-61
2021/09/07 08:00:25;;;;;;;7.20;5.57;;;18.40;75.70;;;;;;10456068;28;20228;-62
2021/09/07 08:05:47;;;;;;;8.03;5.73;;;18.40;75.60;;;;;;10451874;28;20217;-60
2021/09/07 08:11:11;;;;;;;7.33;4.77;;;18.40;75.60;;;;;;10456167;28;20213;-61
2021/09/07 08:16:33;;;;;;;6.97;5.10;;;18.40;75.60;;;;;;10457362;28;20562;-61
2021/09/07 08:21:55;;;;;;;5.00;4.13;;;18.40;75.70;;;;;;10455308;28;20717;-61
2021/09/07 08:27:20;;;;;;;4.67;3.73;;;18.40;75.70;;;;;;10456554;28;20232;-60
2021/09/07 08:32:42;;;;;;;4.90;4.00;;;18.40;75.70;;;;;;10457029;28;20216;-61
2021/09/07 08:38:04;;;;;;;4.70;3.73;;;18.40;75.70;;;;;;10455742;28;20590;-61
2021/09/07 08:43:28;;;;;;;4.87;3.67;;;18.40;75.70;;;;;;10456821;28;20227;-60
2021/09/07 08:48:50;;;;;;;4.30;3.50;;;18.40;75.80;;;;;;10431338;28;20239;-60
2021/09/07 08:54:13;;;;;;;4.80;3.07;;;18.40;75.80;;;;;;10456643;28;20201;-64
2021/09/07 08:59:37;;;;;;;4.43;3.67;;;18.50;75.90;;;;;;10449291;28;20300;-64
2021/09/07 09:04:59;;;;;;;4.00;2.90;;;18.50;75.90;;;;;;10455731;28;20200;-64
2021/09/07 09:10:22;;;;;;;3.60;2.80;;;18.40;75.90;;;;;;10455375;28;20217;-64
2021/09/07 09:16:05;;;;;;;4.07;3.20;;;18.40;76.00;;;;;;10449338;28;20672;-64
2021/09/07 09:21:32;;;;;;;3.40;2.87;;;18.50;75.90;;;;;;10463413;28;20229;-65
2021/09/07 09:26:57;;;;;;;3.40;2.80;;;18.40;76.00;;;;;;10446524;28;20225;-63
2021/09/07 09:32:24;;;;;;;3.10;2.60;;;18.50;76.00;;;;;;10451578;28;20665;-62
2021/09/07 09:37:54;;;;;;;3.07;2.67;;;18.50;76.00;;;;;;10431188;28;20822;-63
2021/09/07 09:43:24;;;;;;;3.33;2.60;;;18.50;76.10;;;;;;10454016;28;20193;-63
2021/09/07 09:48:48;;;;;;;2.97;2.47;;;18.50;76.10;;;;;;10453304;28;20696;-63
2021/09/07 09:54:10;;;;;;;3.27;2.80;;;18.50;76.10;;;;;;10452822;28;20719;-64
2021/09/07 09:59:33;;;;;;;3.10;2.80;;;18.40;76.10;;;;;;10439966;28;20218;-63
2021/09/07 10:04:57;;;;;;;3.30;2.70;;;18.40;76.10;;;;;;10430390;28;20204;-63
2021/09/07 10:10:21;;;;;;;2.73;2.50;;;18.40;76.10;;;;;;10452218;28;20213;-63
2021/09/07 10:15:47;;;;;;;3.07;2.40;;;18.50;76.10;;;;;;10418530;28;20209;-63
2021/09/07 10:26:56;;;;;;;2.93;2.47;;;18.50;76.10;;;;;;10490716;28;20212;-63
2021/09/07 10:32:30;;;;;;;3.57;2.50;;;18.50;76.10;;;;;;10452754;28;20276;-63
2021/09/07 10:38:13;;;;;;;4.93;2.47;;;18.50;76.00;;;;;;10452222;28;20212;-62
2021/09/07 10:43:52;;;;;;;4.10;2.77;;;18.50;75.80;;;;;;10451466;28;20200;-62
2021/09/07 10:49:24;;;;;;;2.67;2.40;;;18.50;76.00;;;;;;10446505;28;20582;-62
2021/09/07 10:54:50;;;;;;;2.90;2.60;;;18.50;76.20;;;;;;10446239;28;20204;-63
2021/09/07 11:00:29;;;;;;;3.07;2.70;;;18.50;76.10;;;;;;10446682;28;20217;-63
2021/09/07 11:05:51;;;;;;;3.43;2.57;;;18.50;75.90;;;;;;10427102;28;20216;-60
2021/09/07 11:11:26;;;;;;;2.70;2.23;;;18.50;76.10;;;;;;10443495;28;20307;-61
2021/09/07 11:16:52;;;;;;;2.57;2.37;;;18.50;76.10;;;;;;10445497;28;20212;-61
2021/09/07 11:22:36;;;;;;;2.50;2.30;;;18.50;76.20;;;;;;10445697;28;20301;-61
2021/09/07 11:28:01;;;;;;;4.07;2.70;;;18.50;76.00;;;;;;10444671;28;20233;-61
2021/09/07 11:33:26;;;;;;;3.47;2.60;;;18.50;76.30;;;;;;10451411;28;20212;-61
2021/09/07 11:38:50;;;;;;;3.50;2.67;;;18.50;76.30;;;;;;10453053;28;20224;-62
2021/09/07 11:44:15;;;;;;;3.13;2.83;;;18.50;76.30;;;;;;10452619;28;20791;-62
2021/09/07 11:49:42;;;;;;;3.17;2.40;;;18.50;76.40;;;;;;10451319;28;20233;-61
2021/09/07 11:55:08;;;;;;;4.10;2.60;;;18.50;76.50;;;;;;10465788;22;20365;-56
2021/09/07 12:00:31;;;;;;;3.20;2.43;;;18.50;76.50;;;;;;10497397;28;20193;-57
2021/09/07 12:05:54;;;;;;;3.23;2.43;;;18.50;76.50;;;;;;10482255;28;20227;-56
2021/09/07 12:11:30;;;;;;;2.60;2.40;;;18.50;76.40;;;;;;10538466;28;20341;-54
2021/09/07 12:16:56;;;;;;;3.47;2.73;;;18.50;76.50;;;;;;10539442;28;20196;-56
2021/09/07 12:22:20;;;;;;;2.53;2.30;;;18.50;76.60;;;;;;10538789;28;20699;-56
2021/09/07 12:27:44;;;;;;;3.37;2.67;;;18.50;76.40;;;;;;10532743;28;20224;-53
2021/09/07 12:33:10;;;;;;;2.83;2.53;;;18.50;76.20;;;;;;10508972;28;20220;-55
2021/09/07 12:38:33;;;;;;;2.60;2.40;;;18.50;76.10;;;;;;10538316;28;20199;-53
2021/09/07 12:43:57;;;;;;;2.83;2.40;;;18.50;76.10;;;;;;10537892;28;20747;-51
2021/09/07 12:49:20;;;;;;;3.57;2.53;;;18.50;76.10;;;;;;10518149;28;20225;-52
2021/09/07 12:54:43;;;;;;;3.00;2.67;;;18.50;76.30;;;;;;10518947;28;20254;-56
2021/09/07 13:00:06;;;;;;;3.43;2.67;;;18.50;76.20;;;;;;10497460;28;20196;-57
2021/09/07 13:05:31;;;;;;;2.97;2.33;;;18.50;76.20;;;;;;10518108;28;20227;-57
2021/09/07 13:10:53;;;;;;;4.07;2.60;;;18.50;76.10;;;;;;10536797;28;20196;-56
2021/09/07 13:16:15;;;;;;;4.23;2.70;;;18.50;76.20;;;;;;10538736;28;20215;-57
2021/09/07 13:21:39;;;;;;;3.70;3.00;;;18.50;76.20;;;;;;10536214;28;20665;-61
2021/09/07 13:27:01;;;;;;;3.63;2.60;;;18.50;75.90;;;;;;10513500;28;20719;-63
2021/09/07 13:32:23;;;;;;;11.97;2.90;;;18.50;75.80;;;;;;10537225;28;20227;-62
2021/09/07 13:37:47;;;;;;;3.43;2.40;;;18.50;75.90;;;;;;10536842;28;20199;-62
2021/09/07 13:43:09;;;;;;;3.10;2.43;;;18.50;76.00;;;;;;10536759;28;20227;-61
2021/09/07 13:48:35;;;;;;;3.13;2.30;;;18.50;76.00;;;;;;10550014;28;20594;-62
2021/09/07 13:53:58;;;;;;;3.30;2.23;;;18.50;75.90;;;;;;10555002;28;20698;-62
2021/09/07 13:59:20;;;;;;;2.63;2.43;;;18.50;75.70;;;;;;10521982;28;20667;-60
2021/09/07 14:04:42;;;;;;;2.70;2.30;;;18.50;75.60;;;;;;10536249;28;20211;-63
2021/09/07 14:10:07;;;;;;;3.43;2.00;;;18.50;75.60;;;;;;10534714;28;20723;-63
2021/09/07 14:15:30;;;;;;;2.73;2.43;;;18.60;75.90;;;;;;10535450;28;20218;-63
2021/09/07 14:20:52;;;;;;;3.00;2.43;;;18.50;75.80;;;;;;10535553;28;20703;-64
2021/09/07 14:26:15;;;;;;;2.50;2.30;;;18.60;75.90;;;;;;10515032;28;20731;-64
2021/09/07 14:31:37;;;;;;;6.07;2.50;;;18.60;75.90;;;;;;10523630;28;20210;-63
2021/09/07 14:36:59;;;;;;;2.97;2.60;;;18.60;75.90;;;;;;10535683;28;20192;-62
2021/09/07 14:42:23;;;;;;;2.40;2.20;;;18.60;76.00;;;;;;10535009;28;20655;-64
2021/09/07 14:47:45;;;;;;;2.53;2.33;;;18.50;75.90;;;;;;10541747;28;20207;-64
2021/09/07 14:53:07;;;;;;;2.37;2.17;;;18.60;76.00;;;;;;10533505;28;20234;-63
2021/09/07 14:58:31;;;;;;;3.23;2.70;;;18.60;76.00;;;;;;10532741;28;20679;-63
2021/09/07 15:03:53;;;;;;;2.63;2.30;;;18.60;75.90;;;;;;10531292;28;20227;-63
2021/09/07 15:09:15;;;;;;;2.50;2.30;;;18.60;75.90;;;;;;10530810;28;20207;-63
2021/09/07 15:14:39;;;;;;;2.67;2.20;;;18.60;76.40;;;;;;10534751;28;20217;-64
2021/09/07 15:20:01;;;;;;;3.13;2.40;;;18.60;75.80;;;;;;10533771;28;20688;-64
2021/09/07 15:25:23;;;;;;;2.67;2.47;;;18.60;75.60;;;;;;10530427;28;20789;-63
2021/09/07 15:30:47;;;;;;;3.53;2.90;;;18.60;75.30;;;;;;10511185;28;20226;-64
2021/09/07 15:36:09;;;;;;;3.23;2.90;;;18.60;75.50;;;;;;10506966;28;20228;-63
2021/09/07 15:41:31;;;;;;;4.23;2.93;;;18.60;75.30;;;;;;10532999;28;20192;-65
2021/09/07 15:46:54;;;;;;;3.53;2.80;;;18.60;75.30;;;;;;10533962;28;20219;-64
2021/09/07 15:52:16;;;;;;;3.37;2.90;;;18.60;75.10;;;;;;10518378;28;20592;-65
2021/09/07 15:57:38;;;;;;;4.50;2.97;;;18.60;75.30;;;;;;10513609;28;20180;-65
2021/09/07 16:03:02;;;;;;;3.33;2.67;;;18.60;75.50;;;;;;10504048;28;20227;-65
2021/09/07 16:08:24;;;;;;;4.80;3.20;;;18.60;75.50;;;;;;10531157;28;20722;-65
2021/09/07 16:13:46;;;;;;;3.77;2.90;;;18.60;75.60;;;;;;10532036;28;20234;-65
2021/09/07 16:19:10;;;;;;;4.27;3.20;;;18.60;75.50;;;;;;10534335;28;20813;-63
2021/09/07 16:24:32;;;;;;;4.33;3.10;;;19.10;74.20;;;;;;10539630;28;20219;-64
2021/09/07 16:29:54;;;;;;;3.03;2.63;;;18.90;74.60;;;;;;10538745;28;20688;-64
2021/09/07 16:35:17;;;;;;;4.47;3.37;;;18.70;74.90;;;;;;10531692;28;20227;-65
2021/09/07 16:40:40;;;;;;;3.93;3.17;;;18.70;75.20;;;;;;10538969;28;20192;-65
2021/09/07 16:46:02;;;;;;;4.30;2.93;;;18.70;75.40;;;;;;10539750;28;20712;-64
2021/09/07 16:51:25;;;;;;;3.53;2.93;;;18.60;75.50;;;;;;10540801;28;20196;-66
2021/09/07 16:56:47;;;;;;;2.60;2.37;;;18.70;75.70;;;;;;10539752;28;20211;-66
2021/09/07 17:02:09;;;;;;;3.50;3.20;;;18.60;75.80;;;;;;10538824;28;20203;-66
2021/09/07 17:07:34;;;;;;;3.03;2.73;;;18.60;75.80;;;;;;10538237;28;20219;-67
2021/09/07 17:12:57;;;;;;;3.77;2.93;;;18.70;76.00;;;;;;10537521;28;20573;-65
2021/09/07 17:18:20;;;;;;;3.33;2.87;;;18.70;75.90;;;;;;10536483;28;20188;-66
2021/09/07 17:23:43;;;;;;;3.10;2.80;;;18.60;75.90;;;;;;10556527;28;20224;-64
2021/09/07 17:29:05;;;;;;;3.27;2.60;;;18.70;75.90;;;;;;10528652;28;20220;-65
2021/09/07 17:34:32;;;;;;;4.73;2.93;;;18.70;75.90;;;;;;10530417;28;20691;-66
2021/09/07 17:45:36;;;;;;;3.17;2.87;;;18.70;75.70;;;;;;10511141;28;20625;-66
2021/09/07 17:50:58;;;;;;;3.07;2.77;;;18.70;75.80;;;;;;10519024;28;20231;-64
2021/09/07 17:56:21;;;;;;;3.13;2.83;;;18.70;75.80;;;;;;10515484;28;20239;-65
2021/09/07 18:01:43;;;;;;;3.45;3.13;;;18.70;75.80;;;;;;10524062;28;20405;-64
2021/09/07 18:07:08;;;;;;;3.63;3.23;;;19.20;73.80;;;;;;10552338;23;20223;-64
2021/09/07 18:12:31;;;;;;;3.90;3.00;;;19.00;74.60;;;;;;10451762;28;20581;-64
2021/09/07 18:17:54;;;;;;;3.10;2.80;;;18.90;75.20;;;;;;10451442;28;20217;-65
2021/09/07 18:23:19;;;;;;;2.73;2.43;;;18.80;75.40;;;;;;10441170;28;20201;-65
2021/09/07 18:28:43;;;;;;;4.07;2.73;;;18.80;75.70;;;;;;10487960;28;20301;-63
2021/09/07 18:34:07;;;;;;;3.00;2.70;;;18.70;75.80;;;;;;10512447;28;20212;-63
2021/09/07 18:39:30;;;;;;;3.20;2.90;;;18.70;76.00;;;;;;10531023;28;20223;-63
2021/09/07 18:44:54;;;;;;;3.83;2.90;;;18.80;76.90;;;;;;10534111;28;20688;-62
2021/09/07 18:50:16;;;;;;;2.93;2.60;;;18.80;76.50;;;;;;10531283;28;20224;-62
2021/09/07 18:55:38;;;;;;;3.47;2.87;;;18.80;76.70;;;;;;10494997;28;20200;-63
2021/09/07 19:01:01;;;;;;;4.87;3.10;;;18.90;77.00;;;;;;10498446;28;20228;-62
2021/09/07 19:06:24;;;;;;;4.00;2.90;;;18.90;77.10;;;;;;10491504;28;20196;-62
2021/09/07 19:11:46;;;;;;;3.53;3.13;;;18.90;77.10;;;;;;10491817;28;20581;-62
2021/09/07 19:17:09;;;;;;;3.87;3.30;;;18.80;77.00;;;;;;10492026;28;20604;-63
2021/09/07 19:22:31;;;;;;;4.37;2.67;;;18.90;77.00;;;;;;10491726;28;20417;-63
2021/09/07 19:27:53;;;;;;;3.90;3.40;;;18.80;77.00;;;;;;10491876;28;20648;-63
2021/09/07 19:33:17;;;;;;;3.90;3.50;;;18.80;77.10;;;;;;10493169;28;20205;-63
2021/09/07 19:38:39;;;;;;;4.03;3.50;;;18.80;77.10;;;;;;10491976;28;20212;-62
2021/09/07 19:44:02;;;;;;;3.73;3.33;;;18.80;77.10;;;;;;10487096;28;20196;-63
2021/09/07 19:49:26;;;;;;;3.57;3.23;;;18.80;77.20;;;;;;10487955;28;20228;-63
2021/09/07 19:54:48;;;;;;;3.90;3.50;;;18.80;77.20;;;;;;10496841;28;20207;-63
2021/09/07 20:00:12;;;;;;;3.13;2.83;;;18.80;77.10;;;;;;10497887;28;20208;-61
2021/09/07 20:05:35;;;;;;;3.63;3.13;;;18.80;77.20;;;;;;10497727;28;20192;-62
2021/09/07 20:10:57;;;;;;;4.20;3.23;;;18.80;77.20;;;;;;10496581;28;20584;-62
2021/09/07 20:16:19;;;;;;;3.77;3.37;;;18.80;77.20;;;;;;10497656;28;20596;-63
2021/09/07 20:21:43;;;;;;;3.60;2.83;;;18.80;77.20;;;;;;10497808;28;20209;-63
2021/09/07 20:27:05;;;;;;;4.00;3.50;;;18.80;77.30;;;;;;10490720;28;20654;-62
2021/09/07 20:32:27;;;;;;;4.43;3.60;;;18.80;77.30;;;;;;10494402;28;20200;-62
2021/09/07 20:37:50;;;;;;;4.03;3.50;;;18.80;77.30;;;;;;10495564;28;20677;-62
2021/09/07 20:43:12;;;;;;;4.90;3.67;;;18.80;77.40;;;;;;10495906;28;20196;-63
2021/09/07 20:48:35;;;;;;;3.70;3.40;;;18.80;77.50;;;;;;10498105;28;20228;-63
2021/09/07 20:53:58;;;;;;;3.80;3.40;;;18.80;77.50;;;;;;10497993;28;20200;-62
2021/09/07 20:59:20;;;;;;;3.57;3.17;;;18.80;77.60;;;;;;10496895;28;20217;-63
2021/09/07 21:04:42;;;;;;;4.27;3.57;;;18.80;77.60;;;;;;10496534;28;20192;-63
2021/09/07 21:10:07;;;;;;;4.10;3.70;;;18.80;77.60;;;;;;10496279;28;20213;-62
2021/09/07 21:15:29;;;;;;;4.67;3.60;;;18.80;77.60;;;;;;10494818;28;20203;-63
2021/09/07 21:20:51;;;;;;;3.93;3.53;;;18.80;77.60;;;;;;10495880;28;20227;-62
2021/09/07 21:26:14;;;;;;;5.10;3.80;;;18.80;77.60;;;;;;10497311;28;20207;-63
2021/09/07 21:31:37;;;;;;;4.73;3.67;;;18.80;77.50;;;;;;10495455;28;20223;-62
2021/09/07 21:36:59;;;;;;;4.73;3.50;;;18.70;77.40;;;;;;10496777;28;20192;-62
2021/09/07 21:42:22;;;;;;;4.43;3.80;;;18.80;77.50;;;;;;10495288;28;20188;-63
2021/09/07 21:47:44;;;;;;;3.83;3.43;;;18.80;77.40;;;;;;10495264;28;20704;-62
2021/09/07 21:53:06;;;;;;;4.87;3.90;;;18.80;77.40;;;;;;10491864;28;20627;-62
2021/09/07 21:58:30;;;;;;;4.57;3.83;;;18.80;77.40;;;;;;10495125;28;20715;-63
2021/09/07 22:03:52;;;;;;;5.03;3.87;;;18.80;77.40;;;;;;10495448;28;20192;-63
2021/09/07 22:09:14;;;;;;;4.10;3.77;;;18.80;77.30;;;;;;10494650;28;20216;-61
2021/09/07 22:14:38;;;;;;;4.47;3.70;;;18.80;77.20;;;;;;10494284;28;20627;-63
2021/09/07 22:20:00;;;;;;;4.63;3.93;;;18.80;77.20;;;;;;10494458;28;20217;-63
2021/09/07 22:25:22;;;;;;;4.23;3.57;;;18.80;77.20;;;;;;10493743;28;20203;-63
2021/09/07 22:30:45;;;;;;;3.80;3.40;;;18.70;77.10;;;;;;10493829;28;20216;-63
2021/09/07 22:36:07;;;;;;;4.63;3.20;;;18.80;77.20;;;;;;10494080;28;20572;-63
2021/09/07 22:41:29;;;;;;;3.77;3.47;;;18.80;77.20;;;;;;10493068;28;20216;-63
2021/09/07 22:46:53;;;;;;;3.80;3.40;;;18.80;77.10;;;;;;10493570;28;20205;-63
2021/09/07 22:52:15;;;;;;;5.60;3.67;;;18.80;77.10;;;;;;10493406;28;20212;-61
2021/09/07 22:57:37;;;;;;;3.83;3.43;;;18.70;77.00;;;;;;10493046;28;20227;-62
2021/09/07 23:03:01;;;;;;;5.00;3.50;;;18.70;76.90;;;;;;10493337;28;20204;-63
2021/09/07 23:08:23;;;;;;;4.00;3.60;;;18.80;77.00;;;;;;10492138;28;20277;-63
2021/09/07 23:13:45;;;;;;;4.77;3.97;;;18.80;76.80;;;;;;10492903;28;20221;-62
2021/09/07 23:19:09;;;;;;;3.67;3.37;;;18.80;76.80;;;;;;10492077;28;20236;-61
2021/09/07 23:24:31;;;;;;;4.40;3.33;;;18.70;76.70;;;;;;10492726;28;20200;-62
2021/09/07 23:29:53;;;;;;;3.83;3.53;;;18.80;76.70;;;;;;10491838;28;20220;-62
2021/09/07 23:35:16;;;;;;;3.57;3.27;;;18.70;76.60;;;;;;10500597;28;20188;-62
2021/09/07 23:40:38;;;;;;;3.60;3.30;;;18.80;76.60;;;;;;10499396;28;20220;-63
2021/09/07 23:46:00;;;;;;;6.03;3.63;;;18.80;76.50;;;;;;10500208;28;20196;-62
2021/09/07 23:51:24;;;;;;;4.83;4.33;;;18.70;76.30;;;;;;10499636;28;20627;-63
2021/09/07 23:56:46;;;;;;;3.77;3.37;;;18.70;76.20;;;;;;10500663;28;20197;-62
